sensor_id;sensor_type;location;lat;lon;timestamp;P1;durP1;ratioP1;P2;durP2;ratioP2
19593;SDS011;9944;48.240;16.478;2023-06-10T00:00:35;2.90;;;1.90;;
19593;SDS011;9944;48.240;16.478;2023-06-10T00:04:59;3.53;;;2.33;;
19593;SDS011;9944;48.240;16.478;2023-06-10T00:09:23;3.17;;;2.38;;
19593;SDS011;9944;48.240;16.478;2023-06-10T00:13:49;3.60;;;2.55;;
19593;SDS011;9944;48.240;16.478;2023-06-10T00:18:12;2.85;;;2.15;;
19593;SDS011;9944;48.240;16.478;2023-06-10T00:22:37;2.65;;;2.08;;
19593;SDS011;9944;48.240;16.478;2023-06-10T00:27:01;3.70;;;2.35;;
19593;SDS011;9944;48.240;16.478;2023-06-10T00:31:26;3.17;;;2.28;;
19593;SDS011;9944;48.240;16.478;2023-06-10T00:35:50;4.47;;;2.50;;
19593;SDS011;9944;48.240;16.478;2023-06-10T00:40:15;2.70;;;2.20;;
19593;SDS011;9944;48.240;16.478;2023-06-10T00:44:39;3.00;;;2.30;;
19593;SDS011;9944;48.240;16.478;2023-06-10T00:49:05;4.55;;;3.00;;
19593;SDS011;9944;48.240;16.478;2023-06-10T00:53:31;2.97;;;2.50;;
19593;SDS011;9944;48.240;16.478;2023-06-10T00:57:55;5.20;;;2.58;;
19593;SDS011;9944;48.240;16.478;2023-06-10T01:02:20;3.47;;;2.95;;
19593;SDS011;9944;48.240;16.478;2023-06-10T01:06:47;3.20;;;2.50;;
19593;SDS011;9944;48.240;16.478;2023-06-10T01:11:21;3.25;;;2.63;;
19593;SDS011;9944;48.240;16.478;2023-06-10T01:15:51;3.25;;;2.80;;
19593;SDS011;9944;48.240;16.478;2023-06-10T01:20:15;4.65;;;2.40;;
19593;SDS011;9944;48.240;16.478;2023-06-10T01:24:41;4.13;;;2.70;;
19593;SDS011;9944;48.240;16.478;2023-06-10T01:29:07;3.78;;;3.03;;
19593;SDS011;9944;48.240;16.478;2023-06-10T01:33:35;3.25;;;2.63;;
19593;SDS011;9944;48.240;16.478;2023-06-10T01:38:00;3.83;;;3.10;;
19593;SDS011;9944;48.240;16.478;2023-06-10T01:42:27;3.45;;;2.80;;
19593;SDS011;9944;48.240;16.478;2023-06-10T01:46:51;4.03;;;2.65;;
19593;SDS011;9944;48.240;16.478;2023-06-10T01:51:15;4.00;;;3.08;;
19593;SDS011;9944;48.240;16.478;2023-06-10T01:55:39;4.22;;;3.38;;
19593;SDS011;9944;48.240;16.478;2023-06-10T02:00:05;4.50;;;3.28;;
19593;SDS011;9944;48.240;16.478;2023-06-10T02:04:35;6.68;;;3.92;;
19593;SDS011;9944;48.240;16.478;2023-06-10T02:08:59;4.15;;;3.60;;
19593;SDS011;9944;48.240;16.478;2023-06-10T02:13:23;5.05;;;3.80;;
19593;SDS011;9944;48.240;16.478;2023-06-10T02:17:50;5.50;;;4.10;;
19593;SDS011;9944;48.240;16.478;2023-06-10T02:22:13;4.38;;;3.63;;
19593;SDS011;9944;48.240;16.478;2023-06-10T02:26:38;5.97;;;3.70;;
19593;SDS011;9944;48.240;16.478;2023-06-10T02:31:02;6.75;;;4.30;;
19593;SDS011;9944;48.240;16.478;2023-06-10T02:35:27;4.93;;;3.97;;
19593;SDS011;9944;48.240;16.478;2023-06-10T02:39:51;7.03;;;4.15;;
19593;SDS011;9944;48.240;16.478;2023-06-10T02:44:15;6.13;;;4.13;;
19593;SDS011;9944;48.240;16.478;2023-06-10T02:48:40;5.88;;;3.92;;
19593;SDS011;9944;48.240;16.478;2023-06-10T02:53:09;5.60;;;3.85;;
19593;SDS011;9944;48.240;16.478;2023-06-10T02:57:36;5.65;;;4.10;;
19593;SDS011;9944;48.240;16.478;2023-06-10T03:02:00;3.95;;;3.30;;
19593;SDS011;9944;48.240;16.478;2023-06-10T03:06:31;5.32;;;4.03;;
19593;SDS011;9944;48.240;16.478;2023-06-10T03:11:13;5.72;;;4.00;;
19593;SDS011;9944;48.240;16.478;2023-06-10T03:15:37;4.68;;;3.95;;
19593;SDS011;9944;48.240;16.478;2023-06-10T03:20:07;5.25;;;3.80;;
19593;SDS011;9944;48.240;16.478;2023-06-10T03:24:35;6.05;;;4.03;;
19593;SDS011;9944;48.240;16.478;2023-06-10T03:29:05;4.85;;;3.47;;
19593;SDS011;9944;48.240;16.478;2023-06-10T03:33:29;6.03;;;4.50;;
19593;SDS011;9944;48.240;16.478;2023-06-10T03:37:53;5.47;;;4.15;;
19593;SDS011;9944;48.240;16.478;2023-06-10T03:42:16;7.00;;;4.70;;
19593;SDS011;9944;48.240;16.478;2023-06-10T03:46:42;5.95;;;4.43;;
19593;SDS011;9944;48.240;16.478;2023-06-10T03:51:06;7.38;;;4.90;;
19593;SDS011;9944;48.240;16.478;2023-06-10T03:55:30;6.82;;;4.03;;
19593;SDS011;9944;48.240;16.478;2023-06-10T03:59:55;7.25;;;4.50;;
19593;SDS011;9944;48.240;16.478;2023-06-10T04:04:21;6.43;;;4.68;;
19593;SDS011;9944;48.240;16.478;2023-06-10T04:08:44;6.85;;;4.30;;
19593;SDS011;9944;48.240;16.478;2023-06-10T04:13:08;8.77;;;5.05;;
19593;SDS011;9944;48.240;16.478;2023-06-10T04:17:39;8.57;;;5.13;;
19593;SDS011;9944;48.240;16.478;2023-06-10T04:22:05;7.85;;;4.97;;
19593;SDS011;9944;48.240;16.478;2023-06-10T04:26:29;5.90;;;4.20;;
19593;SDS011;9944;48.240;16.478;2023-06-10T04:30:53;7.57;;;5.10;;
19593;SDS011;9944;48.240;16.478;2023-06-10T04:35:17;6.15;;;4.50;;
19593;SDS011;9944;48.240;16.478;2023-06-10T04:39:45;8.52;;;4.95;;
19593;SDS011;9944;48.240;16.478;2023-06-10T04:44:09;8.75;;;5.25;;
19593;SDS011;9944;48.240;16.478;2023-06-10T04:48:33;7.30;;;4.75;;
19593;SDS011;9944;48.240;16.478;2023-06-10T04:52:58;8.18;;;5.30;;
19593;SDS011;9944;48.240;16.478;2023-06-10T04:57:24;9.27;;;5.90;;
19593;SDS011;9944;48.240;16.478;2023-06-10T05:01:48;7.90;;;5.57;;
19593;SDS011;9944;48.240;16.478;2023-06-10T05:06:11;8.50;;;4.95;;
19593;SDS011;9944;48.240;16.478;2023-06-10T05:10:35;8.13;;;5.55;;
19593;SDS011;9944;48.240;16.478;2023-06-10T05:15:00;10.75;;;6.32;;
19593;SDS011;9944;48.240;16.478;2023-06-10T05:19:23;11.70;;;6.72;;
19593;SDS011;9944;48.240;16.478;2023-06-10T05:23:47;13.02;;;6.38;;
19593;SDS011;9944;48.240;16.478;2023-06-10T05:28:10;10.05;;;6.60;;
19593;SDS011;9944;48.240;16.478;2023-06-10T05:32:39;11.13;;;7.15;;
19593;SDS011;9944;48.240;16.478;2023-06-10T05:37:02;11.02;;;6.55;;
19593;SDS011;9944;48.240;16.478;2023-06-10T05:41:26;10.73;;;7.20;;
19593;SDS011;9944;48.240;16.478;2023-06-10T05:45:49;10.65;;;7.38;;
19593;SDS011;9944;48.240;16.478;2023-06-10T05:50:15;12.18;;;7.53;;
19593;SDS011;9944;48.240;16.478;2023-06-10T05:54:38;11.73;;;6.65;;
19593;SDS011;9944;48.240;16.478;2023-06-10T05:59:02;11.73;;;7.65;;
19593;SDS011;9944;48.240;16.478;2023-06-10T06:03:25;12.43;;;7.50;;
19593;SDS011;9944;48.240;16.478;2023-06-10T06:07:52;14.00;;;7.30;;
19593;SDS011;9944;48.240;16.478;2023-06-10T06:12:15;11.25;;;6.72;;
19593;SDS011;9944;48.240;16.478;2023-06-10T06:16:39;9.65;;;6.82;;
19593;SDS011;9944;48.240;16.478;2023-06-10T06:21:02;12.40;;;7.93;;
19593;SDS011;9944;48.240;16.478;2023-06-10T06:25:27;14.57;;;7.65;;
19593;SDS011;9944;48.240;16.478;2023-06-10T06:29:51;10.93;;;6.85;;
19593;SDS011;9944;48.240;16.478;2023-06-10T06:34:15;11.00;;;7.22;;
19593;SDS011;9944;48.240;16.478;2023-06-10T06:38:38;10.30;;;7.30;;
19593;SDS011;9944;48.240;16.478;2023-06-10T06:43:04;14.18;;;8.23;;
19593;SDS011;9944;48.240;16.478;2023-06-10T06:47:36;11.30;;;7.10;;
19593;SDS011;9944;48.240;16.478;2023-06-10T06:52:00;12.82;;;7.20;;
19593;SDS011;9944;48.240;16.478;2023-06-10T06:56:23;10.82;;;7.10;;
19593;SDS011;9944;48.240;16.478;2023-06-10T07:00:50;11.00;;;6.72;;
19593;SDS011;9944;48.240;16.478;2023-06-10T07:05:15;11.43;;;7.05;;
19593;SDS011;9944;48.240;16.478;2023-06-10T07:09:39;12.05;;;6.70;;
19593;SDS011;9944;48.240;16.478;2023-06-10T07:14:02;11.13;;;6.70;;
19593;SDS011;9944;48.240;16.478;2023-06-10T07:18:27;11.13;;;6.53;;
19593;SDS011;9944;48.240;16.478;2023-06-10T07:22:50;9.15;;;6.32;;
19593;SDS011;9944;48.240;16.478;2023-06-10T07:27:14;10.10;;;6.80;;
19593;SDS011;9944;48.240;16.478;2023-06-10T07:31:37;9.45;;;6.22;;
19593;SDS011;9944;48.240;16.478;2023-06-10T07:36:03;10.63;;;6.57;;
19593;SDS011;9944;48.240;16.478;2023-06-10T07:40:26;8.88;;;6.00;;
19593;SDS011;9944;48.240;16.478;2023-06-10T07:44:52;10.80;;;6.85;;
19593;SDS011;9944;48.240;16.478;2023-06-10T07:49:15;9.80;;;6.57;;
19593;SDS011;9944;48.240;16.478;2023-06-10T07:53:40;9.50;;;6.72;;
19593;SDS011;9944;48.240;16.478;2023-06-10T07:58:04;10.80;;;6.70;;
19593;SDS011;9944;48.240;16.478;2023-06-10T08:02:27;11.00;;;7.00;;
19593;SDS011;9944;48.240;16.478;2023-06-10T08:06:51;10.75;;;7.18;;
19593;SDS011;9944;48.240;16.478;2023-06-10T08:11:16;12.52;;;7.10;;
19593;SDS011;9944;48.240;16.478;2023-06-10T08:15:39;13.45;;;7.15;;
19593;SDS011;9944;48.240;16.478;2023-06-10T08:20:03;9.85;;;6.93;;
19593;SDS011;9944;48.240;16.478;2023-06-10T08:24:27;11.88;;;8.10;;
19593;SDS011;9944;48.240;16.478;2023-06-10T08:28:52;12.77;;;8.52;;
19593;SDS011;9944;48.240;16.478;2023-06-10T08:33:17;10.90;;;7.15;;
19593;SDS011;9944;48.240;16.478;2023-06-10T08:37:41;14.07;;;8.05;;
19593;SDS011;9944;48.240;16.478;2023-06-10T08:42:11;12.30;;;7.75;;
19593;SDS011;9944;48.240;16.478;2023-06-10T08:46:43;11.55;;;7.90;;
19593;SDS011;9944;48.240;16.478;2023-06-10T08:51:08;12.23;;;7.55;;
19593;SDS011;9944;48.240;16.478;2023-06-10T08:55:35;12.00;;;7.93;;
19593;SDS011;9944;48.240;16.478;2023-06-10T09:00:00;10.52;;;7.25;;
19593;SDS011;9944;48.240;16.478;2023-06-10T09:04:26;13.57;;;7.90;;
19593;SDS011;9944;48.240;16.478;2023-06-10T09:08:50;10.80;;;7.57;;
19593;SDS011;9944;48.240;16.478;2023-06-10T09:13:14;11.73;;;7.47;;
19593;SDS011;9944;48.240;16.478;2023-06-10T09:17:40;10.13;;;7.18;;
19593;SDS011;9944;48.240;16.478;2023-06-10T09:22:05;9.23;;;6.72;;
19593;SDS011;9944;48.240;16.478;2023-06-10T09:26:29;9.95;;;6.97;;
19593;SDS011;9944;48.240;16.478;2023-06-10T09:31:02;10.93;;;7.60;;
19593;SDS011;9944;48.240;16.478;2023-06-10T09:35:28;12.32;;;7.50;;
19593;SDS011;9944;48.240;16.478;2023-06-10T09:40:05;8.82;;;6.72;;
19593;SDS011;9944;48.240;16.478;2023-06-10T09:44:31;11.45;;;6.82;;
19593;SDS011;9944;48.240;16.478;2023-06-10T09:48:55;8.35;;;6.05;;
19593;SDS011;9944;48.240;16.478;2023-06-10T09:53:20;8.15;;;6.07;;
19593;SDS011;9944;48.240;16.478;2023-06-10T09:57:45;10.73;;;7.05;;
19593;SDS011;9944;48.240;16.478;2023-06-10T10:02:15;10.73;;;6.43;;
19593;SDS011;9944;48.240;16.478;2023-06-10T10:06:41;9.43;;;6.68;;
19593;SDS011;9944;48.240;16.478;2023-06-10T10:11:05;8.82;;;6.25;;
19593;SDS011;9944;48.240;16.478;2023-06-10T10:15:41;9.85;;;6.63;;
19593;SDS011;9944;48.240;16.478;2023-06-10T10:20:07;9.57;;;6.15;;
19593;SDS011;9944;48.240;16.478;2023-06-10T10:24:36;8.65;;;6.45;;
19593;SDS011;9944;48.240;16.478;2023-06-10T10:29:05;9.05;;;6.38;;
19593;SDS011;9944;48.240;16.478;2023-06-10T10:33:36;8.70;;;6.45;;
19593;SDS011;9944;48.240;16.478;2023-06-10T10:38:08;7.82;;;6.15;;
19593;SDS011;9944;48.240;16.478;2023-06-10T10:42:33;7.40;;;5.40;;
19593;SDS011;9944;48.240;16.478;2023-06-10T10:46:59;8.88;;;6.25;;
19593;SDS011;9944;48.240;16.478;2023-06-10T10:51:28;7.03;;;5.88;;
19593;SDS011;9944;48.240;16.478;2023-06-10T10:56:01;8.68;;;6.43;;
19593;SDS011;9944;48.240;16.478;2023-06-10T11:00:28;8.75;;;5.55;;
19593;SDS011;9944;48.240;16.478;2023-06-10T11:04:53;8.02;;;5.53;;
19593;SDS011;9944;48.240;16.478;2023-06-10T11:09:26;8.50;;;6.20;;
19593;SDS011;9944;48.240;16.478;2023-06-10T11:14:06;7.03;;;5.65;;
19593;SDS011;9944;48.240;16.478;2023-06-10T11:18:34;7.00;;;5.43;;
19593;SDS011;9944;48.240;16.478;2023-06-10T11:23:02;7.47;;;5.68;;
19593;SDS011;9944;48.240;16.478;2023-06-10T11:27:27;6.72;;;5.00;;
19593;SDS011;9944;48.240;16.478;2023-06-10T11:32:01;7.22;;;5.38;;
19593;SDS011;9944;48.240;16.478;2023-06-10T11:36:29;6.82;;;5.47;;
19593;SDS011;9944;48.240;16.478;2023-06-10T11:40:53;7.53;;;5.50;;
19593;SDS011;9944;48.240;16.478;2023-06-10T11:45:19;8.90;;;5.32;;
19593;SDS011;9944;48.240;16.478;2023-06-10T11:49:42;8.88;;;5.60;;
19593;SDS011;9944;48.240;16.478;2023-06-10T11:54:09;7.93;;;5.00;;
19593;SDS011;9944;48.240;16.478;2023-06-10T11:58:33;6.10;;;4.80;;
19593;SDS011;9944;48.240;16.478;2023-06-10T12:02:58;6.80;;;4.82;;
19593;SDS011;9944;48.240;16.478;2023-06-10T12:07:22;7.00;;;5.10;;
19593;SDS011;9944;48.240;16.478;2023-06-10T12:11:48;7.05;;;5.35;;
19593;SDS011;9944;48.240;16.478;2023-06-10T12:16:12;7.15;;;4.80;;
19593;SDS011;9944;48.240;16.478;2023-06-10T12:20:38;6.65;;;4.90;;
19593;SDS011;9944;48.240;16.478;2023-06-10T12:25:02;8.05;;;5.53;;
19593;SDS011;9944;48.240;16.478;2023-06-10T12:29:29;8.43;;;5.50;;
19593;SDS011;9944;48.240;16.478;2023-06-10T12:34:04;7.68;;;5.28;;
19593;SDS011;9944;48.240;16.478;2023-06-10T12:38:32;7.43;;;5.35;;
19593;SDS011;9944;48.240;16.478;2023-06-10T12:42:56;6.90;;;5.20;;
19593;SDS011;9944;48.240;16.478;2023-06-10T12:47:20;7.28;;;5.18;;
19593;SDS011;9944;48.240;16.478;2023-06-10T12:51:53;6.97;;;5.32;;
19593;SDS011;9944;48.240;16.478;2023-06-10T12:56:18;5.53;;;4.32;;
19593;SDS011;9944;48.240;16.478;2023-06-10T13:00:42;6.10;;;4.90;;
19593;SDS011;9944;48.240;16.478;2023-06-10T13:05:06;6.63;;;5.00;;
19593;SDS011;9944;48.240;16.478;2023-06-10T13:09:32;6.97;;;5.13;;
19593;SDS011;9944;48.240;16.478;2023-06-10T13:13:57;6.93;;;5.22;;
19593;SDS011;9944;48.240;16.478;2023-06-10T13:18:21;6.55;;;4.82;;
19593;SDS011;9944;48.240;16.478;2023-06-10T13:22:45;7.82;;;4.75;;
19593;SDS011;9944;48.240;16.478;2023-06-10T13:27:09;6.55;;;4.90;;
19593;SDS011;9944;48.240;16.478;2023-06-10T13:31:34;4.90;;;4.00;;
19593;SDS011;9944;48.240;16.478;2023-06-10T13:35:58;5.22;;;4.10;;
19593;SDS011;9944;48.240;16.478;2023-06-10T13:40:22;5.85;;;4.50;;
19593;SDS011;9944;48.240;16.478;2023-06-10T13:44:46;6.43;;;4.53;;
19593;SDS011;9944;48.240;16.478;2023-06-10T13:49:12;6.07;;;4.80;;
19593;SDS011;9944;48.240;16.478;2023-06-10T13:53:35;7.93;;;5.30;;
19593;SDS011;9944;48.240;16.478;2023-06-10T13:57:59;7.03;;;5.13;;
19593;SDS011;9944;48.240;16.478;2023-06-10T14:02:23;8.00;;;5.28;;
19593;SDS011;9944;48.240;16.478;2023-06-10T14:06:48;9.25;;;5.10;;
19593;SDS011;9944;48.240;16.478;2023-06-10T14:11:11;6.15;;;5.05;;
19593;SDS011;9944;48.240;16.478;2023-06-10T14:15:35;6.22;;;4.60;;
19593;SDS011;9944;48.240;16.478;2023-06-10T14:19:59;5.63;;;4.40;;
19593;SDS011;9944;48.240;16.478;2023-06-10T14:24:24;6.03;;;4.60;;
19593;SDS011;9944;48.240;16.478;2023-06-10T14:28:48;6.25;;;4.43;;
19593;SDS011;9944;48.240;16.478;2023-06-10T14:33:12;5.65;;;4.63;;
19593;SDS011;9944;48.240;16.478;2023-06-10T14:37:36;6.20;;;5.00;;
19593;SDS011;9944;48.240;16.478;2023-06-10T14:42:01;6.68;;;4.68;;
19593;SDS011;9944;48.240;16.478;2023-06-10T14:46:25;6.25;;;4.50;;
19593;SDS011;9944;48.240;16.478;2023-06-10T14:50:48;5.47;;;4.38;;
19593;SDS011;9944;48.240;16.478;2023-06-10T14:55:12;6.70;;;4.75;;
19593;SDS011;9944;48.240;16.478;2023-06-10T14:59:39;5.30;;;4.18;;
19593;SDS011;9944;48.240;16.478;2023-06-10T15:04:03;5.88;;;4.40;;
19593;SDS011;9944;48.240;16.478;2023-06-10T15:08:27;6.43;;;4.75;;
19593;SDS011;9944;48.240;16.478;2023-06-10T15:12:50;7.22;;;4.45;;
19593;SDS011;9944;48.240;16.478;2023-06-10T15:17:19;4.78;;;3.38;;
19593;SDS011;9944;48.240;16.478;2023-06-10T15:21:43;4.50;;;3.17;;
19593;SDS011;9944;48.240;16.478;2023-06-10T15:26:07;4.72;;;3.45;;
19593;SDS011;9944;48.240;16.478;2023-06-10T15:30:30;7.88;;;4.35;;
19593;SDS011;9944;48.240;16.478;2023-06-10T15:34:55;8.32;;;4.43;;
19593;SDS011;9944;48.240;16.478;2023-06-10T15:39:19;7.50;;;4.80;;
19593;SDS011;9944;48.240;16.478;2023-06-10T15:43:42;7.25;;;4.60;;
19593;SDS011;9944;48.240;16.478;2023-06-10T15:48:06;7.07;;;5.22;;
19593;SDS011;9944;48.240;16.478;2023-06-10T15:52:31;7.72;;;4.85;;
19593;SDS011;9944;48.240;16.478;2023-06-10T15:56:54;7.60;;;5.40;;
19593;SDS011;9944;48.240;16.478;2023-06-10T16:01:18;7.72;;;4.72;;
19593;SDS011;9944;48.240;16.478;2023-06-10T16:05:42;7.55;;;4.85;;
19593;SDS011;9944;48.240;16.478;2023-06-10T16:10:07;5.28;;;4.20;;
19593;SDS011;9944;48.240;16.478;2023-06-10T16:14:31;6.50;;;4.35;;
19593;SDS011;9944;48.240;16.478;2023-06-10T16:18:55;8.27;;;4.07;;
19593;SDS011;9944;48.240;16.478;2023-06-10T16:23:18;6.32;;;4.18;;
19593;SDS011;9944;48.240;16.478;2023-06-10T16:27:44;7.18;;;4.35;;
19593;SDS011;9944;48.240;16.478;2023-06-10T16:32:07;6.38;;;4.35;;
19593;SDS011;9944;48.240;16.478;2023-06-10T16:36:31;5.63;;;4.22;;
19593;SDS011;9944;48.240;16.478;2023-06-10T16:40:55;7.03;;;4.22;;
19593;SDS011;9944;48.240;16.478;2023-06-10T16:45:20;6.90;;;4.45;;
19593;SDS011;9944;48.240;16.478;2023-06-10T16:49:44;7.43;;;4.30;;
19593;SDS011;9944;48.240;16.478;2023-06-10T16:54:11;4.82;;;3.75;;
19593;SDS011;9944;48.240;16.478;2023-06-10T16:58:35;5.97;;;4.50;;
19593;SDS011;9944;48.240;16.478;2023-06-10T17:03:00;4.90;;;3.83;;
19593;SDS011;9944;48.240;16.478;2023-06-10T17:07:23;5.47;;;4.28;;
19593;SDS011;9944;48.240;16.478;2023-06-10T17:11:47;5.43;;;4.25;;
19593;SDS011;9944;48.240;16.478;2023-06-10T17:16:10;5.13;;;4.13;;
19593;SDS011;9944;48.240;16.478;2023-06-10T17:20:35;6.85;;;4.72;;
19593;SDS011;9944;48.240;16.478;2023-06-10T17:24:59;6.82;;;4.65;;
19593;SDS011;9944;48.240;16.478;2023-06-10T17:29:23;6.80;;;4.55;;
19593;SDS011;9944;48.240;16.478;2023-06-10T17:33:46;6.68;;;4.90;;
19593;SDS011;9944;48.240;16.478;2023-06-10T17:38:11;6.78;;;4.90;;
19593;SDS011;9944;48.240;16.478;2023-06-10T17:42:36;6.85;;;4.72;;
19593;SDS011;9944;48.240;16.478;2023-06-10T17:47:00;6.20;;;4.78;;
19593;SDS011;9944;48.240;16.478;2023-06-10T17:51:24;6.75;;;4.63;;
19593;SDS011;9944;48.240;16.478;2023-06-10T17:55:49;7.03;;;4.55;;
19593;SDS011;9944;48.240;16.478;2023-06-10T18:00:13;5.65;;;4.28;;
19593;SDS011;9944;48.240;16.478;2023-06-10T18:04:37;6.38;;;4.65;;
19593;SDS011;9944;48.240;16.478;2023-06-10T18:09:00;7.03;;;4.97;;
19593;SDS011;9944;48.240;16.478;2023-06-10T18:13:26;6.82;;;5.07;;
19593;SDS011;9944;48.240;16.478;2023-06-10T18:17:49;7.13;;;5.05;;
19593;SDS011;9944;48.240;16.478;2023-06-10T18:22:13;6.05;;;4.50;;
19593;SDS011;9944;48.240;16.478;2023-06-10T18:26:36;6.55;;;4.72;;
19593;SDS011;9944;48.240;16.478;2023-06-10T18:31:01;6.93;;;4.57;;
19593;SDS011;9944;48.240;16.478;2023-06-10T18:35:25;8.25;;;5.25;;
19593;SDS011;9944;48.240;16.478;2023-06-10T18:39:49;6.28;;;4.72;;
19593;SDS011;9944;48.240;16.478;2023-06-10T18:44:12;7.80;;;5.47;;
19593;SDS011;9944;48.240;16.478;2023-06-10T18:48:37;7.63;;;5.20;;
19593;SDS011;9944;48.240;16.478;2023-06-10T18:53:03;7.75;;;5.40;;
19593;SDS011;9944;48.240;16.478;2023-06-10T18:57:27;6.97;;;4.90;;
19593;SDS011;9944;48.240;16.478;2023-06-10T19:01:50;7.63;;;5.40;;
19593;SDS011;9944;48.240;16.478;2023-06-10T19:06:15;7.15;;;5.00;;
19593;SDS011;9944;48.240;16.478;2023-06-10T19:10:39;7.18;;;5.03;;
19593;SDS011;9944;48.240;16.478;2023-06-10T19:15:03;6.85;;;5.60;;
19593;SDS011;9944;48.240;16.478;2023-06-10T19:19:27;6.40;;;5.00;;
19593;SDS011;9944;48.240;16.478;2023-06-10T19:23:52;7.13;;;5.50;;
19593;SDS011;9944;48.240;16.478;2023-06-10T19:28:16;6.75;;;5.13;;
19593;SDS011;9944;48.240;16.478;2023-06-10T19:32:40;7.03;;;5.70;;
19593;SDS011;9944;48.240;16.478;2023-06-10T19:37:03;5.50;;;4.60;;
19593;SDS011;9944;48.240;16.478;2023-06-10T19:41:29;6.00;;;5.10;;
19593;SDS011;9944;48.240;16.478;2023-06-10T19:45:52;7.63;;;5.18;;
19593;SDS011;9944;48.240;16.478;2023-06-10T19:50:16;6.50;;;5.57;;
19593;SDS011;9944;48.240;16.478;2023-06-10T19:54:40;5.20;;;4.70;;
19593;SDS011;9944;48.240;16.478;2023-06-10T19:59:05;6.90;;;5.15;;
19593;SDS011;9944;48.240;16.478;2023-06-10T20:03:28;6.88;;;5.03;;
19593;SDS011;9944;48.240;16.478;2023-06-10T20:07:52;6.15;;;5.05;;
19593;SDS011;9944;48.240;16.478;2023-06-10T20:12:15;8.27;;;5.78;;
19593;SDS011;9944;48.240;16.478;2023-06-10T20:16:41;7.40;;;5.10;;
19593;SDS011;9944;48.240;16.478;2023-06-10T20:21:04;6.18;;;4.95;;
19593;SDS011;9944;48.240;16.478;2023-06-10T20:25:28;6.22;;;4.90;;
19593;SDS011;9944;48.240;16.478;2023-06-10T20:29:51;5.75;;;4.75;;
19593;SDS011;9944;48.240;16.478;2023-06-10T20:34:20;5.93;;;4.80;;
19593;SDS011;9944;48.240;16.478;2023-06-10T20:38:43;6.93;;;4.78;;
19593;SDS011;9944;48.240;16.478;2023-06-10T20:43:07;5.57;;;4.60;;
19593;SDS011;9944;48.240;16.478;2023-06-10T20:47:32;5.78;;;4.70;;
19593;SDS011;9944;48.240;16.478;2023-06-10T20:51:58;6.85;;;4.68;;
19593;SDS011;9944;48.240;16.478;2023-06-10T20:56:21;5.85;;;5.10;;
19593;SDS011;9944;48.240;16.478;2023-06-10T21:00:45;5.57;;;4.70;;
19593;SDS011;9944;48.240;16.478;2023-06-10T21:05:09;6.68;;;4.80;;
19593;SDS011;9944;48.240;16.478;2023-06-10T21:09:35;7.40;;;5.30;;
19593;SDS011;9944;48.240;16.478;2023-06-10T21:13:58;8.18;;;5.15;;
19593;SDS011;9944;48.240;16.478;2023-06-10T21:18:22;6.53;;;5.10;;
19593;SDS011;9944;48.240;16.478;2023-06-10T21:22:45;6.55;;;5.18;;
19593;SDS011;9944;48.240;16.478;2023-06-10T21:27:10;6.15;;;4.88;;
19593;SDS011;9944;48.240;16.478;2023-06-10T21:31:36;6.57;;;5.00;;
19593;SDS011;9944;48.240;16.478;2023-06-10T21:36:00;5.60;;;4.93;;
19593;SDS011;9944;48.240;16.478;2023-06-10T21:40:24;6.88;;;5.03;;
19593;SDS011;9944;48.240;16.478;2023-06-10T21:44:49;6.38;;;5.25;;
19593;SDS011;9944;48.240;16.478;2023-06-10T21:49:13;7.07;;;5.15;;
19593;SDS011;9944;48.240;16.478;2023-06-10T21:53:37;5.25;;;4.68;;
19593;SDS011;9944;48.240;16.478;2023-06-10T21:58:00;6.03;;;4.80;;
19593;SDS011;9944;48.240;16.478;2023-06-10T22:02:25;6.90;;;4.75;;
19593;SDS011;9944;48.240;16.478;2023-06-10T22:06:49;7.28;;;4.72;;
19593;SDS011;9944;48.240;16.478;2023-06-10T22:11:13;5.80;;;4.78;;
19593;SDS011;9944;48.240;16.478;2023-06-10T22:15:37;5.88;;;4.80;;
19593;SDS011;9944;48.240;16.478;2023-06-10T22:20:02;6.22;;;5.03;;
19593;SDS011;9944;48.240;16.478;2023-06-10T22:24:25;6.28;;;4.50;;
19593;SDS011;9944;48.240;16.478;2023-06-10T22:28:49;5.78;;;4.30;;
19593;SDS011;9944;48.240;16.478;2023-06-10T22:33:13;6.40;;;4.53;;
19593;SDS011;9944;48.240;16.478;2023-06-10T22:37:38;8.15;;;4.43;;
19593;SDS011;9944;48.240;16.478;2023-06-10T22:42:01;6.05;;;4.50;;
19593;SDS011;9944;48.240;16.478;2023-06-10T22:46:27;5.30;;;4.32;;
19593;SDS011;9944;48.240;16.478;2023-06-10T22:50:50;6.53;;;4.25;;
19593;SDS011;9944;48.240;16.478;2023-06-10T22:55:15;4.93;;;4.03;;
19593;SDS011;9944;48.240;16.478;2023-06-10T22:59:39;4.90;;;3.78;;
19593;SDS011;9944;48.240;16.478;2023-06-10T23:04:02;5.45;;;3.85;;
19593;SDS011;9944;48.240;16.478;2023-06-10T23:08:26;4.65;;;4.05;;
19593;SDS011;9944;48.240;16.478;2023-06-10T23:12:51;5.18;;;3.75;;
19593;SDS011;9944;48.240;16.478;2023-06-10T23:17:15;5.03;;;3.95;;
19593;SDS011;9944;48.240;16.478;2023-06-10T23:21:40;5.72;;;3.75;;
19593;SDS011;9944;48.240;16.478;2023-06-10T23:26:10;4.88;;;3.85;;
19593;SDS011;9944;48.240;16.478;2023-06-10T23:30:35;5.80;;;3.95;;
19593;SDS011;9944;48.240;16.478;2023-06-10T23:34:59;4.03;;;3.60;;
19593;SDS011;9944;48.240;16.478;2023-06-10T23:39:23;3.65;;;3.33;;
19593;SDS011;9944;48.240;16.478;2023-06-10T23:43:46;4.13;;;3.60;;
19593;SDS011;9944;48.240;16.478;2023-06-10T23:48:11;4.25;;;3.63;;
19593;SDS011;9944;48.240;16.478;2023-06-10T23:52:35;4.40;;;3.47;;
19593;SDS011;9944;48.240;16.478;2023-06-10T23:56:59;4.22;;;3.10;;
